Hibbing, MN (55747)

10:26 AM CDT on September 05, 2015 (GMT -0500)
Chisholm-hibbing | | Change Station
CLOSE
Current Station
Airport
Location: Hibbing,
Elevation: 1352 ft
Nearby Weather Stations

Elev 1352 ft 47.39 °N, 92.84 °W | Updated 18 minutes ago

Mostly Cloudy
Mostly Cloudy
75 °F
Feels Like 75 °F
N
7
Wind Variable Wind from SSE

Today
High -- | Low -- °F
--% Chance of Precip.
Yesterday
High -- | Low -- °F
Precip. -- in
6:35 AM 7:44 PM
Waning Gibbous, 48% visible
Pressure 29.96 in
Visibility 10.0 miles
Clouds Scattered Clouds 1000 ft
Mostly Cloudy 6000 ft
Mostly Cloudy 7500 ft
Dew Point 70 °F
Humidity 84%
Rainfall 0.69 in
Snow Depth Not available.
UV 2 out of 12
Pollen 2.80 out of 12
Air Quality Not available.
Flu Activity Not available.
SPECI KHIB 051508Z AUTO 15006KT 10SM SCT010 BKN060 BKN075 24/21 A2996 RMK AO2 T02390211
Pressure 29.96 in
Visibility 10.0 miles
Clouds Scattered Clouds 1000 ft
Mostly Cloudy 6000 ft
Mostly Cloudy 7500 ft
Dew Point 70 °F
Humidity 84%
Rainfall 0.69 in
Snow Depth Not available.
UV 2 out of 12
Pollen 2.80 out of 12
Air Quality Not available.
Flu Activity Not available.
SPECI KHIB 051508Z AUTO 15006KT 10SM SCT010 BKN060 BKN075 24/21 A2996 RMK AO2 T02390211

10-Day Weather Forecast

×

Almanac

Astronomy

Sep. 05, 2015 Rise Set
Actual Time
Civil Twilight
Nautical Twilight
Astronomical Twilight
Moon
Length of Visible Light
Length of Day
Tomorrow will be .
, % of the Moon is Illuminated

Today's Extremes

State Highs State Lows

Community

WunderPhotos

Upload Photos

1,852,482 photos uploaded!

WunderBlogs® & News

Nearby

Air Quality

  Air Quality AQ Index Pollutant
Not available.

Snow Depth

Station Depth Elevation

Earthquake Activity

City Distance Mag. Time & Date
Minimum magnitude displayed is 2.5.

Coastal Water Temperatures

Place Temperature

Stations

Nearby Weather Stations

Station Location Temp. Windchill Dew Point Humidity Wind Precip. Elev Updated Type